Sanibel, Florida
Current Conditions -  °F | °C
As of 4:53 PM on Tuesday 21 Oct 2014 (Local Time) from KFMY Reporting Station
Clear Clear  
Wind Chill: 80°   Ceiling: Unl
Heat Index: 83°   Visibility: 10mi
Dew Point: 69°   Wind: 7mph
Humidity: 69%   Direction: 200°SSW
Pressure: 29.89"   Gusts: NA
Location:  26.44°N, 82.07°W
Report Text: KFMY 212053Z 20006KT 10SM CLR 27/21 A2989 RMK AO2 SLP124 T02670206 56014
Loading
Personal Weather Stations






























Interactive Weather Map
Tropical Storm Tracking
New forecast layout! Learn more

10-Day Weather Forecast

Advertisements
Track Severe Weather on mobile